Time;durP1;ratioP1;P1;durP2;ratioP2;P2;SDS_P1;SDS_P2;PMS_P1;PMS_P2;Temp;Humidity;BMP_temperature;BMP_pressure;BME280_temperature;BME280_humidity;BME280_pressure;Samples;Min_cycle;Max_cycle;Signal;HPM_P1;HPM_P2
2023/09/18 00:01:39;;;;;;;14.35;8.38;;;20.20;99.90;;;;;;4957223;28;20497;-72
2023/09/18 00:04:05;;;;;;;16.83;8.07;;;20.20;99.90;;;;;;4966018;28;20027;-72
2023/09/18 00:06:32;;;;;;;15.00;8.32;;;20.10;99.90;;;;;;4958298;28;20035;-71
2023/09/18 00:08:58;;;;;;;11.13;8.00;;;20.20;99.90;;;;;;4958094;28;20376;-72
2023/09/18 00:11:23;;;;;;;11.23;7.95;;;20.10;99.90;;;;;;4954010;28;20046;-72
2023/09/18 00:13:49;;;;;;;13.35;8.10;;;20.20;99.90;;;;;;4955266;28;20031;-73
2023/09/18 00:16:15;;;;;;;10.50;8.02;;;20.20;99.90;;;;;;4958894;28;20027;-72
2023/09/18 00:18:42;;;;;;;10.80;8.43;;;20.20;99.90;;;;;;4955682;28;20078;-72
2023/09/18 00:21:10;;;;;;;16.42;9.07;;;20.10;99.90;;;;;;4958159;28;20038;-72
2023/09/18 00:23:36;;;;;;;12.55;8.43;;;20.20;99.90;;;;;;4958086;28;20034;-72
2023/09/18 00:26:01;;;;;;;16.98;8.55;;;20.20;99.90;;;;;;4960027;28;20562;-72
2023/09/18 00:28:27;;;;;;;16.80;9.65;;;20.10;99.90;;;;;;4955517;28;20114;-72
2023/09/18 00:30:53;;;;;;;13.10;9.52;;;20.00;99.90;;;;;;4956070;28;20032;-72
2023/09/18 00:33:19;;;;;;;12.25;8.15;;;20.00;99.90;;;;;;4952257;28;20377;-72
2023/09/18 00:35:49;;;;;;;13.15;8.95;;;20.00;99.90;;;;;;4958975;28;20499;-71
2023/09/18 00:38:15;;;;;;;15.20;9.13;;;20.00;99.90;;;;;;4956224;28;20027;-73
2023/09/18 00:40:41;;;;;;;14.25;9.15;;;20.00;99.90;;;;;;4962244;28;20132;-71
2023/09/18 00:43:07;;;;;;;10.60;7.63;;;20.00;99.90;;;;;;4951802;28;20047;-72
2023/09/18 00:45:36;;;;;;;13.73;8.18;;;19.90;99.90;;;;;;4957080;28;20516;-72
2023/09/18 00:48:02;;;;;;;13.98;9.23;;;19.90;99.90;;;;;;4960438;28;20061;-72
2023/09/18 00:50:27;;;;;;;19.58;9.60;;;19.90;99.90;;;;;;4958192;28;20058;-72
2023/09/18 00:52:53;;;;;;;15.02;8.63;;;19.90;99.90;;;;;;4960117;28;20113;-72
2023/09/18 00:55:19;;;;;;;12.25;8.27;;;19.90;99.90;;;;;;4955451;28;20027;-72
2023/09/18 00:57:45;;;;;;;13.15;8.88;;;20.00;99.90;;;;;;4954843;28;20031;-72
2023/09/18 01:00:17;;;;;;;13.77;8.25;;;20.00;99.90;;;;;;4951722;28;20082;-71
2023/09/18 01:02:44;;;;;;;13.98;8.68;;;20.10;99.90;;;;;;4961923;28;20441;-72
2023/09/18 01:05:10;;;;;;;12.70;7.97;;;20.10;99.90;;;;;;4959999;28;20023;-72
2023/09/18 01:07:36;;;;;;;14.18;9.77;;;20.10;99.90;;;;;;4957615;28;20122;-72
2023/09/18 01:10:03;;;;;;;13.55;8.88;;;20.10;99.90;;;;;;4956873;28;20038;-72
2023/09/18 01:12:50;;;;;;;14.93;8.80;;;20.10;99.90;;;;;;4960554;28;20039;-72
2023/09/18 01:15:33;;;;;;;15.73;8.27;;;20.10;99.90;;;;;;4964447;28;20153;-72
2023/09/18 01:18:00;;;;;;;12.18;8.50;;;20.10;99.90;;;;;;4953601;28;20488;-72
2023/09/18 01:20:27;;;;;;;15.27;10.38;;;20.00;99.90;;;;;;4956983;28;20023;-71
2023/09/18 01:22:53;;;;;;;15.20;9.18;;;20.00;99.90;;;;;;4959191;28;20396;-71
2023/09/18 01:25:18;;;;;;;13.25;9.40;;;20.00;99.90;;;;;;4961321;28;20051;-72
2023/09/18 01:27:44;;;;;;;16.35;10.50;;;19.90;99.90;;;;;;4964766;28;20066;-72
2023/09/18 01:30:10;;;;;;;13.23;10.40;;;19.90;99.90;;;;;;4962262;28;20026;-72
2023/09/18 01:32:38;;;;;;;15.55;9.55;;;19.90;99.90;;;;;;4962405;28;20041;-72
2023/09/18 01:35:07;;;;;;;13.95;9.65;;;19.80;99.90;;;;;;4961749;28;20027;-73
2023/09/18 01:37:35;;;;;;;10.90;8.48;;;19.80;99.90;;;;;;4966780;28;20397;-72
2023/09/18 01:40:06;;;;;;;10.95;8.20;;;19.80;99.90;;;;;;4962048;28;20509;-72
2023/09/18 01:42:32;;;;;;;13.77;10.18;;;19.80;99.90;;;;;;4956408;28;20118;-72
2023/09/18 01:44:58;;;;;;;14.90;8.73;;;19.80;99.90;;;;;;4954839;28;20027;-71
2023/09/18 01:47:24;;;;;;;13.00;9.00;;;19.80;99.90;;;;;;4958959;28;20031;-72
2023/09/18 01:49:50;;;;;;;14.23;9.75;;;19.80;99.90;;;;;;4957302;28;20035;-71
2023/09/18 01:52:16;;;;;;;14.80;9.30;;;19.80;99.90;;;;;;4950231;28;20023;-72
2023/09/18 01:54:42;;;;;;;13.95;9.40;;;19.80;99.90;;;;;;4951215;28;20113;-71
2023/09/18 01:57:07;;;;;;;13.82;8.43;;;19.70;99.90;;;;;;4953636;28;20465;-72
2023/09/18 01:59:34;;;;;;;13.88;8.57;;;19.80;99.90;;;;;;4958906;28;20046;-72
2023/09/18 02:02:01;;;;;;;13.23;8.88;;;19.80;99.90;;;;;;4951632;28;20477;-72
2023/09/18 02:04:27;;;;;;;15.50;8.90;;;19.80;99.90;;;;;;4959547;28;20552;-72
2023/09/18 02:06:52;;;;;;;14.23;9.00;;;19.80;99.90;;;;;;4955732;28;20035;-72
2023/09/18 02:09:18;;;;;;;14.55;9.10;;;19.80;99.90;;;;;;4962221;28;20466;-72
2023/09/18 02:11:47;;;;;;;12.32;8.75;;;19.80;99.90;;;;;;4952686;28;20034;-72
2023/09/18 02:14:13;;;;;;;13.13;9.45;;;19.80;99.90;;;;;;4955716;28;20057;-71
2023/09/18 02:16:44;;;;;;;17.23;8.68;;;19.70;99.90;;;;;;4951667;28;20051;-72
2023/09/18 02:19:11;;;;;;;16.40;8.88;;;19.70;99.90;;;;;;4957512;28;20033;-72
2023/09/18 02:21:37;;;;;;;14.43;9.43;;;19.70;99.90;;;;;;4960730;28;20037;-72
2023/09/18 02:24:03;;;;;;;17.85;9.80;;;19.70;99.90;;;;;;4957973;28;20047;-72
2023/09/18 02:26:29;;;;;;;12.98;9.43;;;19.70;99.90;;;;;;4958093;28;20051;-71
2023/09/18 02:28:57;;;;;;;13.18;8.82;;;19.70;99.90;;;;;;4954601;28;20034;-71
2023/09/18 02:31:23;;;;;;;11.57;8.50;;;19.70;99.90;;;;;;4951190;28;20067;-72
2023/09/18 02:33:49;;;;;;;17.58;8.45;;;19.60;99.90;;;;;;4958551;28;20077;-72
2023/09/18 02:36:15;;;;;;;13.55;8.43;;;19.60;99.90;;;;;;4963476;28;20086;-71
2023/09/18 02:38:42;;;;;;;13.75;9.40;;;19.60;99.90;;;;;;4949543;28;20405;-72
2023/09/18 02:41:08;;;;;;;13.80;9.18;;;19.60;99.90;;;;;;4956527;28;20548;-72
2023/09/18 02:43:34;;;;;;;15.00;10.30;;;19.60;99.90;;;;;;4959339;28;20047;-72
2023/09/18 02:46:00;;;;;;;15.13;10.07;;;19.60;99.90;;;;;;4954709;28;20035;-71
2023/09/18 02:48:25;;;;;;;14.00;9.10;;;19.60;99.90;;;;;;4960774;28;20378;-72
2023/09/18 02:50:51;;;;;;;15.65;10.23;;;19.60;99.90;;;;;;4960543;28;20028;-72
2023/09/18 02:53:19;;;;;;;18.33;9.27;;;19.60;99.90;;;;;;4953912;28;20031;-72
2023/09/18 02:55:49;;;;;;;13.43;9.43;;;19.60;99.90;;;;;;4960326;28;20050;-72
2023/09/18 02:58:16;;;;;;;16.48;8.80;;;19.50;99.90;;;;;;4971998;28;20031;-73
2023/09/18 03:00:46;;;;;;;12.38;8.52;;;19.40;99.90;;;;;;4960420;28;20027;-70
2023/09/18 03:03:12;;;;;;;15.93;9.23;;;19.40;99.90;;;;;;4958219;28;20135;-70
2023/09/18 03:05:39;;;;;;;13.05;9.43;;;19.50;99.90;;;;;;4952284;28;20099;-71
2023/09/18 03:08:05;;;;;;;17.40;11.52;;;19.50;99.90;;;;;;4955329;28;20035;-71
2023/09/18 03:10:34;;;;;;;18.38;12.88;;;19.50;99.90;;;;;;4952763;28;21040;-71
2023/09/18 03:13:01;;;;;;;14.13;10.10;;;19.50;99.90;;;;;;4952588;28;20166;-71
2023/09/18 03:15:27;;;;;;;20.90;10.05;;;19.40;99.90;;;;;;4955169;28;20039;-71
2023/09/18 03:17:53;;;;;;;13.88;9.85;;;19.30;99.90;;;;;;4952734;28;20038;-71
2023/09/18 03:20:18;;;;;;;18.73;11.38;;;19.40;99.90;;;;;;4955215;28;20026;-72
2023/09/18 03:22:44;;;;;;;15.63;9.93;;;19.40;99.90;;;;;;4955794;28;20039;-71
2023/09/18 03:25:10;;;;;;;14.90;9.48;;;19.40;99.90;;;;;;4950004;28;20422;-71
2023/09/18 03:27:35;;;;;;;15.63;9.52;;;19.40;99.90;;;;;;4958907;28;20027;-71
2023/09/18 03:30:01;;;;;;;14.40;9.38;;;19.30;99.90;;;;;;4956833;28;20027;-71
2023/09/18 03:32:27;;;;;;;21.05;10.45;;;19.30;99.90;;;;;;4952459;28;20134;-72
2023/09/18 03:34:53;;;;;;;14.93;10.75;;;19.30;99.90;;;;;;4949671;28;20050;-72
2023/09/18 03:37:19;;;;;;;16.05;11.13;;;19.50;99.90;;;;;;4952971;28;20023;-72
2023/09/18 03:39:44;;;;;;;18.70;10.48;;;19.60;99.90;;;;;;4959554;28;20543;-72
2023/09/18 03:42:10;;;;;;;15.07;9.50;;;19.60;99.90;;;;;;4951282;28;20093;-72
2023/09/18 03:44:36;;;;;;;17.83;10.02;;;19.60;99.90;;;;;;4955716;28;20035;-72
2023/09/18 03:47:03;;;;;;;16.27;9.38;;;19.60;99.90;;;;;;4962842;28;21027;-72
2023/09/18 03:49:29;;;;;;;14.25;9.98;;;19.60;99.90;;;;;;4957795;28;20027;-72
2023/09/18 03:51:55;;;;;;;18.92;11.95;;;19.60;99.90;;;;;;4949998;28;20090;-72
2023/09/18 03:54:20;;;;;;;18.23;10.77;;;19.50;99.90;;;;;;4962401;28;20058;-72
2023/09/18 03:56:46;;;;;;;21.60;9.57;;;19.50;99.90;;;;;;4954657;28;20521;-72
2023/09/18 03:59:13;;;;;;;16.75;10.23;;;19.60;99.90;;;;;;4952199;28;20036;-73
2023/09/18 04:01:39;;;;;;;14.10;8.68;;;19.60;99.90;;;;;;4950012;28;20034;-72
2023/09/18 04:04:05;;;;;;;16.48;9.82;;;19.50;99.90;;;;;;4957648;28;20370;-73
2023/09/18 04:06:40;;;;;;;13.52;9.27;;;19.50;99.90;;;;;;4957803;28;20050;-73
2023/09/18 04:09:06;;;;;;;15.32;9.90;;;19.40;99.90;;;;;;4949026;28;20027;-73
2023/09/18 04:11:32;;;;;;;14.43;8.82;;;19.40;99.90;;;;;;4955152;28;20027;-74
2023/09/18 04:14:00;;;;;;;16.60;8.57;;;19.30;99.90;;;;;;4951831;28;20122;-73
2023/09/18 04:16:27;;;;;;;18.85;9.95;;;19.30;99.90;;;;;;4953442;28;20034;-73
2023/09/18 04:18:53;;;;;;;15.38;9.48;;;19.30;99.90;;;;;;4957049;28;20038;-73
2023/09/18 04:21:21;;;;;;;13.25;8.98;;;19.30;99.90;;;;;;4954813;28;20037;-73
2023/09/18 04:23:47;;;;;;;13.18;10.07;;;19.20;99.90;;;;;;4952455;28;20118;-73
2023/09/18 04:26:15;;;;;;;17.55;10.18;;;19.20;99.90;;;;;;4951848;28;20130;-73
2023/09/18 04:28:41;;;;;;;13.02;10.35;;;19.30;99.90;;;;;;4956240;28;20393;-73
2023/09/18 04:31:07;;;;;;;17.05;10.15;;;19.20;99.90;;;;;;4950199;28;20146;-73
2023/09/18 04:33:33;;;;;;;14.18;10.00;;;19.20;99.90;;;;;;4954549;28;20110;-73
2023/09/18 04:35:59;;;;;;;14.95;10.13;;;19.20;99.90;;;;;;4956310;28;20133;-73
2023/09/18 04:38:24;;;;;;;19.23;9.98;;;19.20;99.90;;;;;;4956323;28;20424;-73
2023/09/18 04:40:58;;;;;;;13.32;9.00;;;19.10;99.90;;;;;;4964644;28;20034;-73
2023/09/18 04:43:24;;;;;;;14.80;10.32;;;19.20;99.90;;;;;;4950263;28;20491;-73
2023/09/18 04:45:50;;;;;;;17.27;11.07;;;19.30;99.90;;;;;;4950516;28;20122;-73
2023/09/18 04:48:16;;;;;;;16.95;9.95;;;19.20;99.90;;;;;;4950209;28;20126;-73
2023/09/18 04:50:43;;;;;;;15.38;10.60;;;19.20;99.90;;;;;;4950641;28;20030;-73
2023/09/18 04:53:08;;;;;;;17.00;9.60;;;19.30;99.90;;;;;;4956316;28;20450;-73
2023/09/18 04:55:34;;;;;;;13.95;9.00;;;19.20;99.90;;;;;;4951383;28;20059;-73
2023/09/18 04:58:00;;;;;;;18.00;10.70;;;19.20;99.90;;;;;;4948422;28;20031;-72
2023/09/18 05:00:26;;;;;;;13.10;9.50;;;19.30;99.90;;;;;;4951804;28;20038;-72
2023/09/18 05:02:52;;;;;;;16.60;9.45;;;19.30;99.90;;;;;;4951724;28;20106;-73
2023/09/18 05:05:18;;;;;;;16.20;9.30;;;19.20;99.90;;;;;;4960864;28;20081;-72
2023/09/18 05:07:44;;;;;;;15.15;9.32;;;19.10;99.90;;;;;;4949883;28;20039;-73
2023/09/18 05:10:10;;;;;;;19.83;10.55;;;19.10;99.90;;;;;;4946190;28;20529;-73
2023/09/18 05:12:38;;;;;;;19.55;9.40;;;19.10;99.90;;;;;;4951047;28;20113;-73
2023/09/18 05:15:04;;;;;;;19.50;9.90;;;19.10;99.90;;;;;;4954263;28;20481;-73
2023/09/18 05:17:47;;;;;;;13.95;10.30;;;19.20;99.90;;;;;;4950943;28;20118;-72
2023/09/18 05:20:16;;;;;;;13.32;9.85;;;19.20;99.90;;;;;;4953845;28;20497;-72
2023/09/18 05:22:42;;;;;;;14.55;9.13;;;19.30;99.90;;;;;;4954939;28;20043;-73
2023/09/18 05:25:11;;;;;;;17.77;10.23;;;19.30;99.90;;;;;;4961132;28;20134;-72
2023/09/18 05:27:44;;;;;;;17.23;10.18;;;19.30;99.90;;;;;;4949693;28;20493;-72
2023/09/18 05:30:21;;;;;;;15.07;10.65;;;19.30;99.90;;;;;;4959650;28;20050;-73
2023/09/18 05:32:48;;;;;;;12.85;10.07;;;19.30;99.90;;;;;;4960056;28;20039;-73
2023/09/18 05:35:14;;;;;;;19.92;8.68;;;19.30;99.90;;;;;;4944538;28;20118;-73
2023/09/18 05:37:41;;;;;;;12.75;8.57;;;19.30;99.90;;;;;;4947752;28;20035;-72
2023/09/18 05:40:11;;;;;;;20.85;10.15;;;19.20;99.90;;;;;;4950316;28;20111;-73
2023/09/18 05:42:38;;;;;;;15.05;9.95;;;19.20;99.90;;;;;;4945813;28;20043;-73
2023/09/18 05:45:05;;;;;;;13.60;8.50;;;19.20;99.90;;;;;;4960242;28;20121;-73
2023/09/18 05:47:35;;;;;;;16.55;10.25;;;19.30;99.90;;;;;;4947926;28;20070;-73
2023/09/18 05:50:05;;;;;;;19.48;12.20;;;19.40;99.90;;;;;;4949573;28;20084;-73
2023/09/18 05:52:32;;;;;;;13.77;8.10;;;19.50;99.90;;;;;;4951975;28;20026;-73
2023/09/18 05:54:58;;;;;;;14.02;9.05;;;19.50;99.90;;;;;;4947953;28;20073;-73
2023/09/18 05:57:24;;;;;;;18.17;9.82;;;19.50;99.90;;;;;;4944029;28;20058;-71
2023/09/18 05:59:49;;;;;;;11.27;8.45;;;19.50;99.90;;;;;;4952979;28;20031;-72
2023/09/18 06:02:16;;;;;;;13.50;8.48;;;19.50;99.90;;;;;;4957966;28;20043;-71
2023/09/18 06:04:43;;;;;;;14.30;8.73;;;19.50;99.90;;;;;;4954660;28;20143;-72
2023/09/18 06:07:08;;;;;;;12.85;9.32;;;19.60;99.90;;;;;;4952145;28;20030;-72
2023/09/18 06:09:36;;;;;;;14.18;9.98;;;19.70;99.90;;;;;;4952104;28;20031;-72
2023/09/18 06:12:01;;;;;;;14.43;9.32;;;19.70;99.90;;;;;;4952369;28;21387;-72
2023/09/18 06:14:27;;;;;;;18.10;10.70;;;19.70;99.90;;;;;;4945319;28;20063;-72
2023/09/18 06:16:53;;;;;;;13.98;11.05;;;19.60;99.90;;;;;;4950681;28;20039;-73
2023/09/18 06:19:18;;;;;;;14.45;10.77;;;19.60;99.90;;;;;;4946651;28;20090;-72
2023/09/18 06:21:44;;;;;;;21.67;11.50;;;19.60;99.90;;;;;;4947030;28;20031;-72
2023/09/18 06:24:10;;;;;;;16.33;11.10;;;19.50;99.90;;;;;;4953588;28;20557;-72
2023/09/18 06:26:36;;;;;;;17.92;11.13;;;19.50;99.90;;;;;;4955894;28;20038;-72
2023/09/18 06:29:02;;;;;;;18.80;11.65;;;19.70;99.90;;;;;;4956199;28;20521;-71
2023/09/18 06:31:28;;;;;;;17.70;11.60;;;19.70;99.90;;;;;;4954743;28;20028;-71
2023/09/18 06:33:54;;;;;;;14.88;11.40;;;19.70;99.90;;;;;;4950381;28;20086;-71
2023/09/18 06:36:19;;;;;;;15.32;11.27;;;19.60;99.90;;;;;;4954887;28;20027;-71
2023/09/18 06:38:46;;;;;;;22.40;13.18;;;19.60;99.90;;;;;;4954529;28;20030;-71
2023/09/18 06:41:12;;;;;;;14.10;10.20;;;19.50;99.90;;;;;;4950729;28;20027;-72
2023/09/18 06:43:37;;;;;;;21.42;11.88;;;19.50;99.90;;;;;;4960823;28;20074;-72
2023/09/18 06:46:03;;;;;;;15.27;10.90;;;19.60;99.90;;;;;;4953001;28;20045;-72
2023/09/18 06:48:32;;;;;;;16.85;10.35;;;19.70;99.90;;;;;;4947671;28;20034;-72
2023/09/18 06:50:59;;;;;;;14.20;10.05;;;19.80;99.90;;;;;;4953037;28;20039;-73
2023/09/18 06:53:27;;;;;;;15.60;11.07;;;19.90;99.90;;;;;;4948313;28;20058;-73
2023/09/18 06:55:53;;;;;;;21.30;11.60;;;19.90;99.90;;;;;;4947418;28;20031;-72
2023/09/18 06:58:19;;;;;;;15.52;11.82;;;20.00;99.90;;;;;;4947067;28;20119;-73
2023/09/18 07:00:45;;;;;;;18.10;12.32;;;20.20;99.90;;;;;;4953409;28;20106;-73
2023/09/18 07:03:11;;;;;;;19.70;11.98;;;20.30;99.90;;;;;;4950080;28;20074;-73
2023/09/18 07:05:37;;;;;;;19.70;12.20;;;20.30;99.90;;;;;;4951863;28;20031;-73
2023/09/18 07:08:05;;;;;;;14.27;10.80;;;20.40;99.90;;;;;;4951557;28;20101;-73
2023/09/18 07:10:32;;;;;;;15.82;10.90;;;20.50;99.90;;;;;;4957001;28;20043;-73
2023/09/18 07:12:58;;;;;;;19.80;11.93;;;20.60;99.90;;;;;;4953697;28;20421;-73
2023/09/18 07:15:25;;;;;;;15.95;11.48;;;20.50;99.90;;;;;;4953780;28;20081;-73
2023/09/18 07:17:51;;;;;;;15.00;10.95;;;20.60;99.90;;;;;;4950285;28;20047;-73
2023/09/18 07:20:16;;;;;;;15.20;11.35;;;20.50;99.90;;;;;;4963616;28;20035;-73
2023/09/18 07:22:46;;;;;;;15.85;11.93;;;20.40;99.90;;;;;;4952772;28;20127;-73
2023/09/18 07:25:12;;;;;;;21.40;12.55;;;20.40;99.90;;;;;;4954637;28;20070;-73
2023/09/18 07:27:43;;;;;;;14.93;10.15;;;20.50;99.90;;;;;;4956658;28;20496;-73
2023/09/18 07:30:20;;;;;;;15.45;10.85;;;20.60;99.90;;;;;;4956303;28;20036;-73
2023/09/18 07:32:46;;;;;;;15.20;11.02;;;20.60;99.90;;;;;;4958259;28;20040;-73
2023/09/18 07:35:14;;;;;;;15.18;10.52;;;20.70;99.90;;;;;;4953187;28;20386;-73
2023/09/18 07:37:40;;;;;;;14.63;10.50;;;20.80;99.90;;;;;;4955952;28;20057;-73
2023/09/18 07:40:07;;;;;;;14.90;11.40;;;20.90;99.90;;;;;;4952699;28;20470;-73
2023/09/18 07:42:33;;;;;;;14.57;10.95;;;20.80;99.90;;;;;;4955511;28;20046;-74
2023/09/18 07:44:59;;;;;;;19.73;12.70;;;20.70;99.90;;;;;;4959559;28;20501;-73
2023/09/18 07:47:25;;;;;;;19.30;14.45;;;20.60;99.90;;;;;;4951791;28;20027;-73
2023/09/18 07:49:51;;;;;;;19.67;12.65;;;20.50;99.90;;;;;;4949412;28;20090;-73
2023/09/18 07:52:19;;;;;;;16.25;13.07;;;20.40;99.90;;;;;;4959218;28;20038;-73
2023/09/18 07:54:45;;;;;;;23.33;15.05;;;20.30;99.90;;;;;;4959242;28;20035;-74
2023/09/18 07:57:11;;;;;;;21.65;15.65;;;20.20;99.90;;;;;;4957325;28;20023;-73
2023/09/18 07:59:42;;;;;;;19.63;14.13;;;20.20;99.90;;;;;;4955694;28;20035;-74
2023/09/18 08:02:09;;;;;;;19.75;12.77;;;20.30;99.90;;;;;;4954293;28;20023;-73
2023/09/18 08:04:35;;;;;;;18.02;12.70;;;20.30;99.90;;;;;;4959828;28;20026;-73
2023/09/18 08:07:01;;;;;;;20.38;12.95;;;20.20;99.90;;;;;;4957611;28;20042;-72
2023/09/18 08:09:29;;;;;;;16.20;13.65;;;20.40;99.90;;;;;;4961616;28;20027;-73
2023/09/18 08:11:55;;;;;;;17.35;12.68;;;20.60;99.90;;;;;;4951093;28;20094;-73
2023/09/18 08:14:24;;;;;;;19.13;13.02;;;20.60;99.90;;;;;;4948255;28;20478;-73
2023/09/18 08:16:59;;;;;;;15.02;11.35;;;20.70;99.90;;;;;;4950338;28;20117;-73
2023/09/18 08:19:26;;;;;;;20.13;11.88;;;20.60;99.90;;;;;;4951743;28;20481;-73
2023/09/18 08:21:54;;;;;;;15.27;10.52;;;20.80;99.90;;;;;;4956863;28;20111;-73
2023/09/18 08:24:20;;;;;;;16.85;11.23;;;21.10;99.90;;;;;;4949974;28;20039;-73
2023/09/18 08:26:46;;;;;;;21.60;13.25;;;21.00;99.90;;;;;;4963192;28;20086;-73
2023/09/18 08:29:13;;;;;;;18.63;11.98;;;21.10;99.90;;;;;;4949013;28;20028;-74
2023/09/18 08:31:38;;;;;;;19.15;13.05;;;21.20;99.90;;;;;;4956052;28;20031;-73
2023/09/18 08:34:04;;;;;;;21.40;12.07;;;21.30;99.90;;;;;;4948464;28;20110;-73
2023/09/18 08:36:31;;;;;;;14.68;12.15;;;21.30;99.90;;;;;;4951149;28;20018;-74
2023/09/18 08:38:57;;;;;;;21.10;11.60;;;21.30;99.90;;;;;;4958014;28;20457;-73
2023/09/18 08:41:27;;;;;;;15.75;10.85;;;21.40;99.90;;;;;;4948306;28;20031;-73
2023/09/18 08:43:59;;;;;;;17.05;11.98;;;21.40;99.90;;;;;;4948041;28;20053;-73
2023/09/18 08:46:25;;;;;;;15.52;11.48;;;21.40;99.90;;;;;;4955540;28;20030;-73
2023/09/18 08:48:52;;;;;;;14.77;12.05;;;21.60;99.90;;;;;;4962981;28;20039;-73
2023/09/18 08:51:19;;;;;;;15.77;11.32;;;21.60;99.90;;;;;;4949083;28;20023;-73
2023/09/18 08:53:46;;;;;;;19.10;11.50;;;21.80;99.90;;;;;;4951911;28;20042;-73
2023/09/18 08:56:13;;;;;;;13.70;10.50;;;21.80;99.90;;;;;;4961453;28;20038;-73
2023/09/18 08:58:42;;;;;;;18.52;12.00;;;21.90;99.90;;;;;;4947868;28;20030;-73
2023/09/18 09:01:12;;;;;;;20.23;11.95;;;21.80;99.90;;;;;;4949191;28;20027;-73
2023/09/18 09:03:42;;;;;;;17.90;11.80;;;21.90;99.90;;;;;;4957318;28;20090;-73
2023/09/18 09:06:09;;;;;;;19.20;11.63;;;21.70;99.90;;;;;;4957047;28;20026;-73
2023/09/18 09:08:36;;;;;;;17.10;10.93;;;21.90;99.90;;;;;;4956428;28;20057;-73
2023/09/18 09:11:02;;;;;;;17.70;11.20;;;21.90;99.90;;;;;;4951661;28;20037;-73
2023/09/18 09:13:28;;;;;;;16.02;11.02;;;21.90;99.90;;;;;;4961314;28;20023;-73
2023/09/18 09:15:58;;;;;;;18.33;11.38;;;22.00;99.90;;;;;;4948652;28;20098;-73
2023/09/18 09:18:25;;;;;;;14.38;10.48;;;21.90;99.90;;;;;;4974846;28;20035;-73
2023/09/18 09:20:59;;;;;;;14.80;9.93;;;22.10;99.90;;;;;;4955540;28;20895;-73
2023/09/18 09:23:53;;;;;;;15.38;10.75;;;22.10;99.90;;;;;;4960193;28;20501;-73
2023/09/18 09:26:22;;;;;;;15.63;10.75;;;22.20;99.90;;;;;;4960656;28;20058;-73
2023/09/18 09:28:48;;;;;;;19.77;10.10;;;22.30;99.90;;;;;;4955539;28;20046;-74
2023/09/18 09:31:28;;;;;;;16.25;10.20;;;22.60;99.90;;;;;;4949380;28;20035;-73
2023/09/18 09:33:54;;;;;;;17.20;9.70;;;22.40;99.90;;;;;;4954972;28;20035;-74
2023/09/18 09:36:20;;;;;;;14.80;10.18;;;22.80;99.90;;;;;;4956251;28;20031;-73
2023/09/18 09:38:46;;;;;;;14.00;9.75;;;22.90;99.90;;;;;;4955806;28;20629;-73
2023/09/18 09:41:17;;;;;;;20.67;9.95;;;22.80;99.90;;;;;;4955117;28;20453;-73
2023/09/18 09:43:44;;;;;;;16.27;10.40;;;22.90;99.90;;;;;;4952116;28;20039;-73
2023/09/18 09:46:18;;;;;;;16.15;9.40;;;22.90;99.90;;;;;;4957114;28;20051;-73
2023/09/18 09:49:06;;;;;;;15.50;10.38;;;22.90;99.90;;;;;;4954674;28;20023;-73
2023/09/18 09:51:32;;;;;;;14.05;9.60;;;22.70;99.90;;;;;;4954575;28;20039;-73
2023/09/18 09:54:00;;;;;;;16.58;10.43;;;22.70;99.90;;;;;;4960263;28;20042;-72
2023/09/18 09:56:50;;;;;;;16.35;11.27;;;22.70;99.90;;;;;;4954811;28;20512;-73
2023/09/18 09:59:19;;;;;;;18.92;12.48;;;22.50;99.90;;;;;;4957361;28;20033;-73
2023/09/18 10:01:51;;;;;;;16.60;11.10;;;22.60;99.90;;;;;;4952373;28;20030;-73
2023/09/18 10:04:18;;;;;;;15.68;10.85;;;22.70;99.90;;;;;;4961367;28;20043;-73
2023/09/18 10:06:50;;;;;;;15.10;10.27;;;22.80;99.90;;;;;;4959611;28;20617;-73
2023/09/18 10:09:19;;;;;;;18.05;10.50;;;22.80;99.90;;;;;;4960526;28;20038;-74
2023/09/18 10:11:52;;;;;;;14.77;10.27;;;22.90;99.90;;;;;;4947314;28;20027;-72
2023/09/18 10:14:29;;;;;;;13.50;10.38;;;22.90;99.90;;;;;;4949712;28;20731;-72
2023/09/18 10:17:00;;;;;;;13.73;9.73;;;23.20;99.90;;;;;;4974135;28;20030;-71
2023/09/18 10:19:28;;;;;;;13.45;9.73;;;23.30;99.90;;;;;;4950452;28;20039;-72
2023/09/18 10:22:05;;;;;;;19.67;10.60;;;23.40;99.90;;;;;;4947696;28;20170;-71
2023/09/18 10:24:39;;;;;;;18.15;9.57;;;23.30;99.90;;;;;;4953340;28;21246;-72
2023/09/18 10:27:06;;;;;;;17.33;10.57;;;23.30;99.90;;;;;;4955876;28;20094;-72
2023/09/18 10:29:34;;;;;;;17.65;11.18;;;23.20;99.90;;;;;;4950709;28;20062;-72
2023/09/18 10:32:04;;;;;;;14.60;8.65;;;23.30;99.90;;;;;;4955134;28;20122;-72
2023/09/18 10:34:32;;;;;;;15.02;8.73;;;23.30;99.90;;;;;;4953886;28;20496;-71
2023/09/18 10:37:00;;;;;;;14.85;7.53;;;23.50;99.90;;;;;;4946913;28;20027;-72
2023/09/18 10:39:28;;;;;;;62.55;26.95;;;23.60;99.90;;;;;;4947921;28;20528;-72
2023/09/18 10:41:56;;;;;;;24.65;11.93;;;23.70;99.90;;;;;;4955298;28;20028;-72
2023/09/18 10:44:23;;;;;;;18.27;9.65;;;23.70;99.90;;;;;;4950021;28;20367;-72
2023/09/18 10:46:55;;;;;;;19.17;8.05;;;23.50;99.90;;;;;;4962741;28;20031;-72
2023/09/18 10:49:22;;;;;;;20.08;8.80;;;23.60;99.90;;;;;;4961022;28;20422;-72
2023/09/18 10:51:48;;;;;;;15.15;9.05;;;23.70;99.90;;;;;;4957968;28;20097;-72
2023/09/18 10:54:21;;;;;;;16.88;8.93;;;23.70;99.90;;;;;;4958807;28;20031;-73
2023/09/18 10:56:47;;;;;;;16.33;9.07;;;23.80;99.90;;;;;;4958945;28;20071;-71
2023/09/18 10:59:15;;;;;;;14.48;7.35;;;23.80;99.90;;;;;;4945974;28;20027;-72
2023/09/18 11:01:40;;;;;;;17.15;8.38;;;24.20;99.90;;;;;;4946259;28;20090;-72
2023/09/18 11:04:09;;;;;;;15.25;8.45;;;24.90;99.90;;;;;;4951096;28;20027;-72
2023/09/18 11:06:53;;;;;;;14.98;8.27;;;24.80;99.90;;;;;;4947677;28;20031;-72
2023/09/18 11:09:24;;;;;;;12.15;7.15;;;24.80;99.90;;;;;;4947646;28;23640;-72
2023/09/18 11:12:04;;;;;;;13.00;7.82;;;24.70;99.90;;;;;;4949512;28;23296;-72
2023/09/18 11:14:52;;;;;;;17.70;7.55;;;24.70;99.90;;;;;;4949770;28;20023;-72
2023/09/18 11:17:38;;;;;;;17.55;9.02;;;24.80;99.90;;;;;;4949497;28;20038;-73
2023/09/18 11:20:12;;;;;;;13.80;6.95;;;24.60;99.90;;;;;;4951282;28;20034;-72
2023/09/18 11:22:55;;;;;;;10.95;6.95;;;24.70;99.90;;;;;;4949013;28;20415;-71
2023/09/18 11:25:42;;;;;;;15.20;7.07;;;24.70;99.90;;;;;;4962405;28;20121;-72
2023/09/18 11:28:23;;;;;;;16.50;6.43;;;24.70;99.90;;;;;;4962379;28;20026;-72
2023/09/18 11:30:58;;;;;;;15.88;6.63;;;24.80;99.90;;;;;;4949731;28;20027;-72
2023/09/18 11:33:44;;;;;;;14.38;6.55;;;24.70;99.90;;;;;;4948723;28;20035;-71
2023/09/18 11:36:14;;;;;;;15.07;6.38;;;24.70;99.90;;;;;;4954829;28;20042;-72
2023/09/18 11:38:55;;;;;;;13.55;7.53;;;24.70;99.90;;;;;;4952843;28;20023;-72
2023/09/18 11:41:26;;;;;;;13.55;6.50;;;24.40;99.90;;;;;;4952108;28;20043;-72
2023/09/18 11:43:53;;;;;;;17.80;6.28;;;24.30;99.90;;;;;;4959437;28;20095;-71
2023/09/18 11:46:20;;;;;;;16.40;7.43;;;24.30;99.90;;;;;;4951298;28;20034;-71
2023/09/18 11:48:50;;;;;;;19.15;7.53;;;24.30;99.90;;;;;;5116358;23;20038;-77
2023/09/18 11:51:24;;;;;;;19.92;6.72;;;24.40;99.90;;;;;;4995070;28;20033;-78
2023/09/18 11:53:54;;;;;;;16.58;6.93;;;24.30;99.90;;;;;;4993216;28;20030;-78
2023/09/18 11:56:21;;;;;;;20.98;6.35;;;24.20;99.90;;;;;;4995432;28;20831;-78
2023/09/18 11:58:48;;;;;;;16.88;7.07;;;24.20;99.90;;;;;;4973727;28;20468;-78
2023/09/18 12:01:15;;;;;;;15.30;6.60;;;24.40;99.90;;;;;;4997295;28;20034;-78
2023/09/18 12:03:41;;;;;;;19.77;7.60;;;24.50;99.90;;;;;;4994582;28;20030;-78
2023/09/18 12:06:09;;;;;;;23.33;7.65;;;24.60;99.90;;;;;;4993127;28;20025;-79
2023/09/18 12:08:35;;;;;;;20.50;7.35;;;24.60;99.90;;;;;;4987754;28;20030;-79
2023/09/18 12:11:08;;;;;;;19.73;7.35;;;24.50;99.90;;;;;;4989332;28;20041;-79
2023/09/18 12:13:34;;;;;;;22.20;7.85;;;24.50;99.90;;;;;;4987881;28;20069;-78
2023/09/18 12:16:01;;;;;;;25.38;7.10;;;24.50;99.90;;;;;;4983480;28;20069;-78
2023/09/18 12:18:31;;;;;;;15.73;7.30;;;24.50;99.90;;;;;;4991931;28;20030;-79
2023/09/18 12:20:58;;;;;;;15.85;6.50;;;24.50;99.90;;;;;;4991677;28;20104;-79
2023/09/18 12:23:25;;;;;;;16.40;7.22;;;24.50;99.90;;;;;;4988573;28;20070;-79
2023/09/18 12:25:59;;;;;;;23.85;7.65;;;24.40;99.90;;;;;;4985800;28;20030;-78
2023/09/18 12:28:31;;;;;;;23.80;7.10;;;24.40;99.90;;;;;;4969086;28;20475;-78
2023/09/18 12:30:58;;;;;;;18.95;7.70;;;24.40;99.90;;;;;;4983200;28;20033;-78
2023/09/18 12:33:24;;;;;;;19.85;7.28;;;24.50;99.90;;;;;;4984113;28;20121;-78
2023/09/18 12:35:53;;;;;;;19.77;6.97;;;24.90;99.90;;;;;;4986013;28;20034;-78
2023/09/18 12:38:24;;;;;;;17.63;6.88;;;25.30;99.90;;;;;;4987932;28;20116;-78